KSWO/SWO METAR and TAF weather

Enter ICAO airport designator
Station Type Date Time Source
KSWO METAR 2019/06/17 03:53 UTC NOAA

KSWO 170353Z AUTO 30003KT 8SM CLR 20/18 A2987 RMK AO2 SLP104 T02000183


Station Type Date Time Source
KSWO Decoded METAR 2019/06/17 03:53 UTC NOAA

STILLWATER REGIONAL AIRPORT, OK, United States (KSWO) 36-10N 97-05W 290M
Jun 16, 2019 - 11:53 PM EDT / 2019.06.17 0353 UTC
Wind: from the WNW (300 degrees) at 3 MPH (3 KT):0
Visibility: 8 mile(s):0
Sky conditions: clear
Temperature: 68.0 F (20.0 C)
Dew Point: 64.9 F (18.3 C)
Relative Humidity: 89%
Pressure (altimeter): 29.87 in. Hg (1011 hPa)
ob: KSWO 170353Z AUTO 30003KT 8SM CLR 20/18 A2987 RMK AO2 SLP104 T02000183
cycle: 4

Station Type Date Time Source
KSWO TAF UTC NOAA

Error!

Example: see airport list